sensor_id;sensor_type;location;lat;lon;timestamp;temperature;humidity
26541;DHT22;14206;50.202;10.948;2022-09-17T00:01:22;8.50;96.60
26541;DHT22;14206;50.202;10.948;2022-09-17T00:03:51;8.60;96.60
26541;DHT22;14206;50.202;10.948;2022-09-17T00:06:18;8.60;96.60
26541;DHT22;14206;50.202;10.948;2022-09-17T00:08:45;8.60;96.60
26541;DHT22;14206;50.202;10.948;2022-09-17T00:11:25;8.60;96.60
26541;DHT22;14206;50.202;10.948;2022-09-17T00:13:53;8.60;96.60
26541;DHT22;14206;50.202;10.948;2022-09-17T00:16:27;8.60;96.60
26541;DHT22;14206;50.202;10.948;2022-09-17T00:18:54;8.60;96.60
26541;DHT22;14206;50.202;10.948;2022-09-17T00:21:22;8.60;96.60
26541;DHT22;14206;50.202;10.948;2022-09-17T00:23:53;8.60;96.60
26541;DHT22;14206;50.202;10.948;2022-09-17T00:26:21;8.70;96.60
26541;DHT22;14206;50.202;10.948;2022-09-17T00:28:49;8.60;96.60
26541;DHT22;14206;50.202;10.948;2022-09-17T00:31:16;8.70;96.60
26541;DHT22;14206;50.202;10.948;2022-09-17T00:33:43;8.70;96.60
26541;DHT22;14206;50.202;10.948;2022-09-17T00:36:10;8.70;96.60
26541;DHT22;14206;50.202;10.948;2022-09-17T00:38:37;8.70;96.60
26541;DHT22;14206;50.202;10.948;2022-09-17T00:41:05;8.70;96.60
26541;DHT22;14206;50.202;10.948;2022-09-17T00:43:44;8.70;96.60
26541;DHT22;14206;50.202;10.948;2022-09-17T00:46:32;8.70;96.60
26541;DHT22;14206;50.202;10.948;2022-09-17T00:49:05;8.70;96.60
26541;DHT22;14206;50.202;10.948;2022-09-17T00:51:36;8.70;96.60
26541;DHT22;14206;50.202;10.948;2022-09-17T00:54:07;8.70;96.60
26541;DHT22;14206;50.202;10.948;2022-09-17T00:56:37;8.70;96.60
26541;DHT22;14206;50.202;10.948;2022-09-17T00:59:05;8.70;96.60
26541;DHT22;14206;50.202;10.948;2022-09-17T01:01:33;8.70;96.60
26541;DHT22;14206;50.202;10.948;2022-09-17T01:04:00;8.70;96.60
26541;DHT22;14206;50.202;10.948;2022-09-17T01:06:41;8.70;96.60
26541;DHT22;14206;50.202;10.948;2022-09-17T01:09:47;8.80;96.60
26541;DHT22;14206;50.202;10.948;2022-09-17T01:28:52;9.30;96.60
26541;DHT22;14206;50.202;10.948;2022-09-17T01:31:36;9.40;96.60
26541;DHT22;14206;50.202;10.948;2022-09-17T01:42:37;9.50;96.60
26541;DHT22;14206;50.202;10.948;2022-09-17T01:48:12;9.50;96.60
26541;DHT22;14206;50.202;10.948;2022-09-17T01:51:18;9.50;96.60
26541;DHT22;14206;50.202;10.948;2022-09-17T01:53:56;9.50;96.60
26541;DHT22;14206;50.202;10.948;2022-09-17T01:56:36;9.50;96.60
26541;DHT22;14206;50.202;10.948;2022-09-17T01:59:11;9.60;96.60
26541;DHT22;14206;50.202;10.948;2022-09-17T02:01:40;9.60;96.60
26541;DHT22;14206;50.202;10.948;2022-09-17T02:04:19;9.60;96.60
26541;DHT22;14206;50.202;10.948;2022-09-17T02:06:52;9.70;96.60
26541;DHT22;14206;50.202;10.948;2022-09-17T02:09:23;9.70;96.60
26541;DHT22;14206;50.202;10.948;2022-09-17T02:11:56;9.70;96.60
26541;DHT22;14206;50.202;10.948;2022-09-17T02:14:32;9.70;96.60
26541;DHT22;14206;50.202;10.948;2022-09-17T02:17:08;9.80;96.60
26541;DHT22;14206;50.202;10.948;2022-09-17T02:19:38;9.80;96.60
26541;DHT22;14206;50.202;10.948;2022-09-17T02:27:34;9.80;96.60
26541;DHT22;14206;50.202;10.948;2022-09-17T02:30:02;9.90;96.60
26541;DHT22;14206;50.202;10.948;2022-09-17T02:32:29;9.90;96.60
26541;DHT22;14206;50.202;10.948;2022-09-17T02:34:56;9.90;96.60
26541;DHT22;14206;50.202;10.948;2022-09-17T02:37:23;9.90;96.60
26541;DHT22;14206;50.202;10.948;2022-09-17T02:39:50;9.90;96.60
26541;DHT22;14206;50.202;10.948;2022-09-17T02:45:43;10.00;96.60
26541;DHT22;14206;50.202;10.948;2022-09-17T02:56:50;10.00;96.60
26541;DHT22;14206;50.202;10.948;2022-09-17T02:59:25;10.00;96.60
26541;DHT22;14206;50.202;10.948;2022-09-17T03:04:37;10.10;96.60
26541;DHT22;14206;50.202;10.948;2022-09-17T03:07:06;10.10;96.60
26541;DHT22;14206;50.202;10.948;2022-09-17T03:09:37;10.10;96.60
26541;DHT22;14206;50.202;10.948;2022-09-17T03:12:04;10.00;96.60
26541;DHT22;14206;50.202;10.948;2022-09-17T03:14:31;10.00;96.60
26541;DHT22;14206;50.202;10.948;2022-09-17T03:16:58;10.00;96.60
26541;DHT22;14206;50.202;10.948;2022-09-17T03:19:25;10.00;96.60
26541;DHT22;14206;50.202;10.948;2022-09-17T03:21:53;10.00;96.60
26541;DHT22;14206;50.202;10.948;2022-09-17T03:24:20;10.00;96.60
26541;DHT22;14206;50.202;10.948;2022-09-17T03:26:47;9.90;96.60
26541;DHT22;14206;50.202;10.948;2022-09-17T03:29:15;9.90;96.60
26541;DHT22;14206;50.202;10.948;2022-09-17T03:31:42;9.90;96.60
26541;DHT22;14206;50.202;10.948;2022-09-17T03:34:09;9.90;96.60
26541;DHT22;14206;50.202;10.948;2022-09-17T03:36:36;9.90;96.60
26541;DHT22;14206;50.202;10.948;2022-09-17T03:39:03;9.90;96.60
26541;DHT22;14206;50.202;10.948;2022-09-17T03:41:30;9.90;96.60
26541;DHT22;14206;50.202;10.948;2022-09-17T03:43:57;9.90;96.60
26541;DHT22;14206;50.202;10.948;2022-09-17T03:46:24;9.90;96.60
26541;DHT22;14206;50.202;10.948;2022-09-17T03:48:50;9.80;96.60
26541;DHT22;14206;50.202;10.948;2022-09-17T03:51:17;9.80;96.60
26541;DHT22;14206;50.202;10.948;2022-09-17T03:53:45;9.80;96.60
26541;DHT22;14206;50.202;10.948;2022-09-17T03:56:12;9.80;96.60
26541;DHT22;14206;50.202;10.948;2022-09-17T03:58:39;9.70;96.60
26541;DHT22;14206;50.202;10.948;2022-09-17T04:01:06;9.70;96.60
26541;DHT22;14206;50.202;10.948;2022-09-17T04:03:33;9.70;96.60
26541;DHT22;14206;50.202;10.948;2022-09-17T04:06:00;9.70;96.60
26541;DHT22;14206;50.202;10.948;2022-09-17T04:08:27;9.60;96.60
26541;DHT22;14206;50.202;10.948;2022-09-17T04:10:54;9.60;96.60
26541;DHT22;14206;50.202;10.948;2022-09-17T04:13:20;9.60;96.60
26541;DHT22;14206;50.202;10.948;2022-09-17T04:15:47;9.60;96.60
26541;DHT22;14206;50.202;10.948;2022-09-17T04:18:14;9.60;96.60
26541;DHT22;14206;50.202;10.948;2022-09-17T04:20:42;9.60;96.60
26541;DHT22;14206;50.202;10.948;2022-09-17T04:23:10;9.60;96.60
26541;DHT22;14206;50.202;10.948;2022-09-17T04:25:38;9.60;96.60
26541;DHT22;14206;50.202;10.948;2022-09-17T04:28:05;9.60;96.60
26541;DHT22;14206;50.202;10.948;2022-09-17T04:30:32;9.60;96.60
26541;DHT22;14206;50.202;10.948;2022-09-17T04:32:59;9.60;96.60
26541;DHT22;14206;50.202;10.948;2022-09-17T04:35:25;9.70;96.60
26541;DHT22;14206;50.202;10.948;2022-09-17T04:37:54;9.70;96.60
26541;DHT22;14206;50.202;10.948;2022-09-17T04:40:22;9.60;96.60
26541;DHT22;14206;50.202;10.948;2022-09-17T04:42:54;9.60;96.60
26541;DHT22;14206;50.202;10.948;2022-09-17T04:45:21;9.60;96.60
26541;DHT22;14206;50.202;10.948;2022-09-17T04:47:48;9.60;96.60
26541;DHT22;14206;50.202;10.948;2022-09-17T04:50:19;9.60;96.60
26541;DHT22;14206;50.202;10.948;2022-09-17T04:52:46;9.60;96.60
26541;DHT22;14206;50.202;10.948;2022-09-17T04:55:14;9.70;96.60
26541;DHT22;14206;50.202;10.948;2022-09-17T04:57:52;9.70;96.60
26541;DHT22;14206;50.202;10.948;2022-09-17T05:00:20;9.70;96.60
26541;DHT22;14206;50.202;10.948;2022-09-17T05:02:51;9.80;96.60
26541;DHT22;14206;50.202;10.948;2022-09-17T05:05:18;9.80;96.60
26541;DHT22;14206;50.202;10.948;2022-09-17T05:07:45;9.80;96.60
26541;DHT22;14206;50.202;10.948;2022-09-17T05:10:14;9.80;96.60
26541;DHT22;14206;50.202;10.948;2022-09-17T05:12:47;9.80;96.60
26541;DHT22;14206;50.202;10.948;2022-09-17T05:15:15;9.80;96.60
26541;DHT22;14206;50.202;10.948;2022-09-17T05:17:42;9.80;96.60
26541;DHT22;14206;50.202;10.948;2022-09-17T05:20:09;9.80;96.60
26541;DHT22;14206;50.202;10.948;2022-09-17T05:22:44;9.80;96.60
26541;DHT22;14206;50.202;10.948;2022-09-17T05:25:11;9.70;96.60
26541;DHT22;14206;50.202;10.948;2022-09-17T05:27:40;9.70;96.60
26541;DHT22;14206;50.202;10.948;2022-09-17T05:30:08;9.70;96.60
26541;DHT22;14206;50.202;10.948;2022-09-17T05:32:35;9.70;96.60
26541;DHT22;14206;50.202;10.948;2022-09-17T05:35:03;9.70;96.60
26541;DHT22;14206;50.202;10.948;2022-09-17T05:37:31;9.70;96.60
26541;DHT22;14206;50.202;10.948;2022-09-17T05:39:58;9.70;96.60
26541;DHT22;14206;50.202;10.948;2022-09-17T05:42:25;9.80;96.60
26541;DHT22;14206;50.202;10.948;2022-09-17T05:44:52;9.80;96.60
26541;DHT22;14206;50.202;10.948;2022-09-17T05:47:19;9.80;96.60
26541;DHT22;14206;50.202;10.948;2022-09-17T05:49:46;9.90;96.60
26541;DHT22;14206;50.202;10.948;2022-09-17T05:52:13;9.90;96.60
26541;DHT22;14206;50.202;10.948;2022-09-17T05:54:40;9.90;96.60
26541;DHT22;14206;50.202;10.948;2022-09-17T05:57:07;9.90;96.60
26541;DHT22;14206;50.202;10.948;2022-09-17T05:59:34;9.90;96.60
26541;DHT22;14206;50.202;10.948;2022-09-17T06:02:01;10.00;96.60
26541;DHT22;14206;50.202;10.948;2022-09-17T06:04:28;10.10;96.60
26541;DHT22;14206;50.202;10.948;2022-09-17T06:07:03;10.10;96.60
26541;DHT22;14206;50.202;10.948;2022-09-17T06:09:34;10.10;96.60
26541;DHT22;14206;50.202;10.948;2022-09-17T06:12:03;10.20;96.60
26541;DHT22;14206;50.202;10.948;2022-09-17T06:14:30;10.20;96.60
26541;DHT22;14206;50.202;10.948;2022-09-17T06:16:57;10.20;96.60
26541;DHT22;14206;50.202;10.948;2022-09-17T06:19:24;10.20;96.60
26541;DHT22;14206;50.202;10.948;2022-09-17T06:21:51;10.30;96.60
26541;DHT22;14206;50.202;10.948;2022-09-17T06:24:17;10.30;96.60
26541;DHT22;14206;50.202;10.948;2022-09-17T06:26:44;10.30;96.60
26541;DHT22;14206;50.202;10.948;2022-09-17T06:29:11;10.40;96.60
26541;DHT22;14206;50.202;10.948;2022-09-17T06:31:40;10.50;96.60
26541;DHT22;14206;50.202;10.948;2022-09-17T06:34:11;10.70;96.60
26541;DHT22;14206;50.202;10.948;2022-09-17T06:36:38;10.80;96.60
26541;DHT22;14206;50.202;10.948;2022-09-17T06:39:05;10.90;96.60
26541;DHT22;14206;50.202;10.948;2022-09-17T06:41:32;11.10;96.60
26541;DHT22;14206;50.202;10.948;2022-09-17T06:44:03;11.20;96.60
26541;DHT22;14206;50.202;10.948;2022-09-17T06:46:30;11.40;96.60
26541;DHT22;14206;50.202;10.948;2022-09-17T06:48:56;11.50;96.60
26541;DHT22;14206;50.202;10.948;2022-09-17T06:51:23;11.60;96.60
26541;DHT22;14206;50.202;10.948;2022-09-17T06:53:50;11.60;96.60
26541;DHT22;14206;50.202;10.948;2022-09-17T06:56:17;11.70;96.60
26541;DHT22;14206;50.202;10.948;2022-09-17T06:58:44;11.70;96.60
26541;DHT22;14206;50.202;10.948;2022-09-17T07:01:11;11.70;96.60
26541;DHT22;14206;50.202;10.948;2022-09-17T07:03:41;11.80;96.60
26541;DHT22;14206;50.202;10.948;2022-09-17T07:06:11;11.90;96.60
26541;DHT22;14206;50.202;10.948;2022-09-17T07:08:39;12.00;96.60
26541;DHT22;14206;50.202;10.948;2022-09-17T07:11:05;12.00;96.60
26541;DHT22;14206;50.202;10.948;2022-09-17T07:13:34;12.10;96.60
26541;DHT22;14206;50.202;10.948;2022-09-17T07:16:02;12.20;96.60
26541;DHT22;14206;50.202;10.948;2022-09-17T07:18:31;12.40;96.60
26541;DHT22;14206;50.202;10.948;2022-09-17T07:21:02;12.50;96.60
26541;DHT22;14206;50.202;10.948;2022-09-17T07:23:32;12.70;96.60
26541;DHT22;14206;50.202;10.948;2022-09-17T07:26:02;12.90;96.60
26541;DHT22;14206;50.202;10.948;2022-09-17T07:28:29;13.10;96.60
26541;DHT22;14206;50.202;10.948;2022-09-17T07:30:56;13.30;95.30
26541;DHT22;14206;50.202;10.948;2022-09-17T07:33:25;13.50;95.20
26541;DHT22;14206;50.202;10.948;2022-09-17T07:35:57;13.50;94.30
26541;DHT22;14206;50.202;10.948;2022-09-17T07:38:24;13.50;93.70
26541;DHT22;14206;50.202;10.948;2022-09-17T07:40:59;13.60;94.40
26541;DHT22;14206;50.202;10.948;2022-09-17T07:43:28;13.60;93.90
26541;DHT22;14206;50.202;10.948;2022-09-17T07:45:57;13.50;93.40
26541;DHT22;14206;50.202;10.948;2022-09-17T07:48:25;13.40;93.60
26541;DHT22;14206;50.202;10.948;2022-09-17T07:50:52;13.20;94.00
26541;DHT22;14206;50.202;10.948;2022-09-17T07:53:19;13.10;93.60
26541;DHT22;14206;50.202;10.948;2022-09-17T07:55:55;13.10;94.20
26541;DHT22;14206;50.202;10.948;2022-09-17T07:58:27;13.10;93.50
26541;DHT22;14206;50.202;10.948;2022-09-17T08:03:29;13.40;93.30
26541;DHT22;14206;50.202;10.948;2022-09-17T08:06:02;13.50;93.40
26541;DHT22;14206;50.202;10.948;2022-09-17T08:08:34;13.70;93.80
26541;DHT22;14206;50.202;10.948;2022-09-17T08:11:06;13.90;92.90
26541;DHT22;14206;50.202;10.948;2022-09-17T08:13:34;14.20;92.60
26541;DHT22;14206;50.202;10.948;2022-09-17T08:16:09;14.40;91.30
26541;DHT22;14206;50.202;10.948;2022-09-17T08:18:39;14.50;91.10
26541;DHT22;14206;50.202;10.948;2022-09-17T08:21:10;14.50;89.30
26541;DHT22;14206;50.202;10.948;2022-09-17T08:23:39;14.50;89.20
26541;DHT22;14206;50.202;10.948;2022-09-17T08:26:07;14.30;89.30
26541;DHT22;14206;50.202;10.948;2022-09-17T08:28:36;14.10;91.20
26541;DHT22;14206;50.202;10.948;2022-09-17T08:31:06;13.90;89.70
26541;DHT22;14206;50.202;10.948;2022-09-17T08:33:38;13.70;90.70
26541;DHT22;14206;50.202;10.948;2022-09-17T08:36:07;13.50;91.40
26541;DHT22;14206;50.202;10.948;2022-09-17T08:38:36;13.40;90.80
26541;DHT22;14206;50.202;10.948;2022-09-17T08:46:31;13.30;91.30
26541;DHT22;14206;50.202;10.948;2022-09-17T09:06:26;15.80;85.20
26541;DHT22;14206;50.202;10.948;2022-09-17T09:09:13;16.20;82.40
26541;DHT22;14206;50.202;10.948;2022-09-17T09:11:41;16.80;80.10
26541;DHT22;14206;50.202;10.948;2022-09-17T09:14:16;17.30;79.00
26541;DHT22;14206;50.202;10.948;2022-09-17T09:16:45;17.90;77.90
26541;DHT22;14206;50.202;10.948;2022-09-17T09:19:17;18.30;76.60
26541;DHT22;14206;50.202;10.948;2022-09-17T09:22:08;18.90;75.80
26541;DHT22;14206;50.202;10.948;2022-09-17T09:24:48;19.90;72.90
26541;DHT22;14206;50.202;10.948;2022-09-17T09:27:27;20.90;72.20
26541;DHT22;14206;50.202;10.948;2022-09-17T09:35:01;23.00;66.20
26541;DHT22;14206;50.202;10.948;2022-09-17T09:37:38;23.20;63.60
26541;DHT22;14206;50.202;10.948;2022-09-17T09:40:32;23.90;61.30
26541;DHT22;14206;50.202;10.948;2022-09-17T09:43:06;24.40;57.90
26541;DHT22;14206;50.202;10.948;2022-09-17T09:45:46;25.30;58.00
26541;DHT22;14206;50.202;10.948;2022-09-17T09:51:12;25.80;55.10
26541;DHT22;14206;50.202;10.948;2022-09-17T09:54:22;24.90;55.00
26541;DHT22;14206;50.202;10.948;2022-09-17T09:56:59;23.50;57.40
26541;DHT22;14206;50.202;10.948;2022-09-17T09:59:29;22.30;59.70
26541;DHT22;14206;50.202;10.948;2022-09-17T10:01:56;21.30;61.30
26541;DHT22;14206;50.202;10.948;2022-09-17T10:04:25;20.50;63.60
26541;DHT22;14206;50.202;10.948;2022-09-17T10:07:00;20.00;63.50
26541;DHT22;14206;50.202;10.948;2022-09-17T10:09:33;19.40;65.40
26541;DHT22;14206;50.202;10.948;2022-09-17T10:14:39;18.80;66.10
26541;DHT22;14206;50.202;10.948;2022-09-17T10:17:23;19.00;67.40
26541;DHT22;14206;50.202;10.948;2022-09-17T10:22:45;20.20;65.00
26541;DHT22;14206;50.202;10.948;2022-09-17T10:25:33;20.80;62.30
26541;DHT22;14206;50.202;10.948;2022-09-17T10:28:03;21.40;62.10
26541;DHT22;14206;50.202;10.948;2022-09-17T10:30:31;22.70;60.60
26541;DHT22;14206;50.202;10.948;2022-09-17T10:33:23;23.50;60.50
26541;DHT22;14206;50.202;10.948;2022-09-17T10:36:02;24.70;56.50
26541;DHT22;14206;50.202;10.948;2022-09-17T10:38:38;23.90;56.80
26541;DHT22;14206;50.202;10.948;2022-09-17T10:41:20;23.30;59.30
26541;DHT22;14206;50.202;10.948;2022-09-17T10:43:48;22.40;58.40
26541;DHT22;14206;50.202;10.948;2022-09-17T10:46:28;22.90;59.10
26541;DHT22;14206;50.202;10.948;2022-09-17T10:51:25;22.30;59.00
26541;DHT22;14206;50.202;10.948;2022-09-17T10:54:30;21.70;59.20
26541;DHT22;14206;50.202;10.948;2022-09-17T10:57:00;21.70;62.70
26541;DHT22;14206;50.202;10.948;2022-09-17T10:59:54;22.70;60.00
26541;DHT22;14206;50.202;10.948;2022-09-17T11:10:26;27.50;49.90
26541;DHT22;14206;50.202;10.948;2022-09-17T11:13:11;28.60;48.10
26541;DHT22;14206;50.202;10.948;2022-09-17T11:18:44;30.00;45.90
26541;DHT22;14206;50.202;10.948;2022-09-17T11:29:56;29.20;43.40
26541;DHT22;14206;50.202;10.948;2022-09-17T11:35:06;25.50;47.50
26541;DHT22;14206;50.202;10.948;2022-09-17T11:37:57;24.00;49.60
26541;DHT22;14206;50.202;10.948;2022-09-17T11:43:39;22.70;52.40
26541;DHT22;14206;50.202;10.948;2022-09-17T11:46:23;21.70;54.70
26541;DHT22;14206;50.202;10.948;2022-09-17T11:48:57;21.00;58.00
26541;DHT22;14206;50.202;10.948;2022-09-17T11:51:48;20.10;57.40
26541;DHT22;14206;50.202;10.948;2022-09-17T11:57:04;18.00;65.70
26541;DHT22;14206;50.202;10.948;2022-09-17T12:05:45;15.40;76.00
26541;DHT22;14206;50.202;10.948;2022-09-17T12:08:16;15.80;79.90
26541;DHT22;14206;50.202;10.948;2022-09-17T12:11:09;17.50;76.80
26541;DHT22;14206;50.202;10.948;2022-09-17T12:13:43;19.80;68.80
26541;DHT22;14206;50.202;10.948;2022-09-17T12:21:35;24.20;60.40
26541;DHT22;14206;50.202;10.948;2022-09-17T12:24:23;25.00;58.70
26541;DHT22;14206;50.202;10.948;2022-09-17T12:30:05;24.60;56.60
26541;DHT22;14206;50.202;10.948;2022-09-17T13:00:24;19.80;66.30
26541;DHT22;14206;50.202;10.948;2022-09-17T13:03:06;19.40;66.00
26541;DHT22;14206;50.202;10.948;2022-09-17T13:17:13;19.70;64.30
26541;DHT22;14206;50.202;10.948;2022-09-17T13:19:52;19.80;64.60
26541;DHT22;14206;50.202;10.948;2022-09-17T13:22:32;19.80;64.20
26541;DHT22;14206;50.202;10.948;2022-09-17T13:25:10;19.60;62.60
26541;DHT22;14206;50.202;10.948;2022-09-17T13:27:39;19.20;63.40
26541;DHT22;14206;50.202;10.948;2022-09-17T13:30:08;18.70;64.10
26541;DHT22;14206;50.202;10.948;2022-09-17T13:42:52;18.80;66.00
26541;DHT22;14206;50.202;10.948;2022-09-17T13:45:22;18.80;67.70
26541;DHT22;14206;50.202;10.948;2022-09-17T13:50:36;18.70;66.60
26541;DHT22;14206;50.202;10.948;2022-09-17T13:55:59;18.90;66.80
26541;DHT22;14206;50.202;10.948;2022-09-17T13:58:34;19.00;67.40
26541;DHT22;14206;50.202;10.948;2022-09-17T14:01:06;18.90;68.30
26541;DHT22;14206;50.202;10.948;2022-09-17T14:19:32;18.30;65.90
26541;DHT22;14206;50.202;10.948;2022-09-17T14:38:02;16.60;70.20
26541;DHT22;14206;50.202;10.948;2022-09-17T14:40:32;16.40;69.10
26541;DHT22;14206;50.202;10.948;2022-09-17T14:43:01;16.40;71.10
26541;DHT22;14206;50.202;10.948;2022-09-17T14:45:38;16.40;71.30
26541;DHT22;14206;50.202;10.948;2022-09-17T14:50:53;16.20;69.50
26541;DHT22;14206;50.202;10.948;2022-09-17T14:53:36;16.20;69.70
26541;DHT22;14206;50.202;10.948;2022-09-17T14:56:04;16.10;68.40
26541;DHT22;14206;50.202;10.948;2022-09-17T14:58:35;16.00;67.50
26541;DHT22;14206;50.202;10.948;2022-09-17T15:01:03;16.00;67.80
26541;DHT22;14206;50.202;10.948;2022-09-17T15:03:30;15.90;68.40
26541;DHT22;14206;50.202;10.948;2022-09-17T15:05:56;15.70;68.10
26541;DHT22;14206;50.202;10.948;2022-09-17T15:08:26;15.70;67.10
26541;DHT22;14206;50.202;10.948;2022-09-17T15:10:58;15.70;67.50
26541;DHT22;14206;50.202;10.948;2022-09-17T15:13:31;15.70;67.10
26541;DHT22;14206;50.202;10.948;2022-09-17T15:16:09;15.70;67.40
26541;DHT22;14206;50.202;10.948;2022-09-17T15:18:41;15.80;67.60
26541;DHT22;14206;50.202;10.948;2022-09-17T15:26:42;15.90;67.00
26541;DHT22;14206;50.202;10.948;2022-09-17T15:29:11;15.80;67.50
26541;DHT22;14206;50.202;10.948;2022-09-17T15:31:39;15.70;67.30
26541;DHT22;14206;50.202;10.948;2022-09-17T15:34:10;15.60;69.70
26541;DHT22;14206;50.202;10.948;2022-09-17T15:39:38;14.80;76.20
26541;DHT22;14206;50.202;10.948;2022-09-17T15:42:13;14.40;76.70
26541;DHT22;14206;50.202;10.948;2022-09-17T15:44:42;14.10;78.70
26541;DHT22;14206;50.202;10.948;2022-09-17T15:52:43;13.40;84.00
26541;DHT22;14206;50.202;10.948;2022-09-17T15:55:32;13.20;84.20
26541;DHT22;14206;50.202;10.948;2022-09-17T15:58:02;13.30;85.50
26541;DHT22;14206;50.202;10.948;2022-09-17T16:00:30;13.30;85.20
26541;DHT22;14206;50.202;10.948;2022-09-17T16:08:58;12.70;88.10
26541;DHT22;14206;50.202;10.948;2022-09-17T16:11:29;12.60;88.00
26541;DHT22;14206;50.202;10.948;2022-09-17T16:13:58;12.40;88.70
26541;DHT22;14206;50.202;10.948;2022-09-17T16:16:31;12.30;88.70
26541;DHT22;14206;50.202;10.948;2022-09-17T16:18:59;12.20;88.30
26541;DHT22;14206;50.202;10.948;2022-09-17T16:21:26;12.10;87.50
26541;DHT22;14206;50.202;10.948;2022-09-17T16:23:53;11.90;89.00
26541;DHT22;14206;50.202;10.948;2022-09-17T16:26:24;11.80;89.30
26541;DHT22;14206;50.202;10.948;2022-09-17T16:28:58;11.60;90.10
26541;DHT22;14206;50.202;10.948;2022-09-17T16:31:25;11.60;89.70
26541;DHT22;14206;50.202;10.948;2022-09-17T16:33:52;11.50;89.70
26541;DHT22;14206;50.202;10.948;2022-09-17T16:36:20;11.40;90.30
26541;DHT22;14206;50.202;10.948;2022-09-17T16:38:48;11.40;90.20
26541;DHT22;14206;50.202;10.948;2022-09-17T16:41:14;11.30;90.40
26541;DHT22;14206;50.202;10.948;2022-09-17T16:43:42;11.30;90.40
26541;DHT22;14206;50.202;10.948;2022-09-17T16:46:10;11.30;90.40
26541;DHT22;14206;50.202;10.948;2022-09-17T16:48:37;11.30;90.80
26541;DHT22;14206;50.202;10.948;2022-09-17T16:51:07;11.20;91.10
26541;DHT22;14206;50.202;10.948;2022-09-17T16:53:34;11.20;91.10
26541;DHT22;14206;50.202;10.948;2022-09-17T16:56:08;11.20;90.90
26541;DHT22;14206;50.202;10.948;2022-09-17T16:58:36;11.20;90.60
26541;DHT22;14206;50.202;10.948;2022-09-17T17:01:07;11.10;91.20
26541;DHT22;14206;50.202;10.948;2022-09-17T17:03:34;11.10;91.80
26541;DHT22;14206;50.202;10.948;2022-09-17T17:06:01;11.00;92.10
26541;DHT22;14206;50.202;10.948;2022-09-17T17:08:32;11.00;92.30
26541;DHT22;14206;50.202;10.948;2022-09-17T17:11:00;11.00;92.70
26541;DHT22;14206;50.202;10.948;2022-09-17T17:13:27;11.00;92.80
26541;DHT22;14206;50.202;10.948;2022-09-17T17:15:53;10.90;93.20
26541;DHT22;14206;50.202;10.948;2022-09-17T17:18:21;10.90;93.10
26541;DHT22;14206;50.202;10.948;2022-09-17T17:20:48;10.90;93.50
26541;DHT22;14206;50.202;10.948;2022-09-17T17:23:15;10.90;93.70
26541;DHT22;14206;50.202;10.948;2022-09-17T17:25:42;10.90;93.60
26541;DHT22;14206;50.202;10.948;2022-09-17T17:28:09;10.80;93.90
26541;DHT22;14206;50.202;10.948;2022-09-17T17:30:36;10.80;93.80
26541;DHT22;14206;50.202;10.948;2022-09-17T17:33:04;10.80;93.80
26541;DHT22;14206;50.202;10.948;2022-09-17T17:35:31;10.80;94.20
26541;DHT22;14206;50.202;10.948;2022-09-17T17:37:58;10.80;93.50
26541;DHT22;14206;50.202;10.948;2022-09-17T17:40:25;10.80;93.20
26541;DHT22;14206;50.202;10.948;2022-09-17T17:42:52;10.80;92.50
26541;DHT22;14206;50.202;10.948;2022-09-17T17:45:19;10.80;92.30
26541;DHT22;14206;50.202;10.948;2022-09-17T17:47:47;10.90;92.00
26541;DHT22;14206;50.202;10.948;2022-09-17T17:50:14;10.90;92.30
26541;DHT22;14206;50.202;10.948;2022-09-17T17:52:41;10.90;92.30
26541;DHT22;14206;50.202;10.948;2022-09-17T17:55:14;11.00;92.00
26541;DHT22;14206;50.202;10.948;2022-09-17T17:57:41;11.00;91.50
26541;DHT22;14206;50.202;10.948;2022-09-17T18:00:09;11.10;92.20
26541;DHT22;14206;50.202;10.948;2022-09-17T18:02:38;11.20;92.10
26541;DHT22;14206;50.202;10.948;2022-09-17T18:05:06;11.20;91.80
26541;DHT22;14206;50.202;10.948;2022-09-17T18:07:33;11.20;91.70
26541;DHT22;14206;50.202;10.948;2022-09-17T18:10:00;11.20;90.70
26541;DHT22;14206;50.202;10.948;2022-09-17T18:12:26;11.20;90.90
26541;DHT22;14206;50.202;10.948;2022-09-17T18:14:53;11.20;91.10
26541;DHT22;14206;50.202;10.948;2022-09-17T18:17:20;11.10;91.90
26541;DHT22;14206;50.202;10.948;2022-09-17T18:19:47;11.10;91.30
26541;DHT22;14206;50.202;10.948;2022-09-17T18:22:14;11.10;91.60
26541;DHT22;14206;50.202;10.948;2022-09-17T18:24:41;11.00;92.00
26541;DHT22;14206;50.202;10.948;2022-09-17T18:27:07;11.00;91.80
26541;DHT22;14206;50.202;10.948;2022-09-17T18:29:34;10.90;92.30
26541;DHT22;14206;50.202;10.948;2022-09-17T18:32:01;10.80;92.60
26541;DHT22;14206;50.202;10.948;2022-09-17T18:34:28;10.70;93.80
26541;DHT22;14206;50.202;10.948;2022-09-17T18:36:55;10.60;93.90
26541;DHT22;14206;50.202;10.948;2022-09-17T18:39:22;10.60;93.90
26541;DHT22;14206;50.202;10.948;2022-09-17T18:42:08;10.50;94.40
26541;DHT22;14206;50.202;10.948;2022-09-17T18:44:35;10.50;95.10
26541;DHT22;14206;50.202;10.948;2022-09-17T18:47:02;10.50;94.10
26541;DHT22;14206;50.202;10.948;2022-09-17T18:49:29;10.40;94.50
26541;DHT22;14206;50.202;10.948;2022-09-17T18:51:56;10.40;94.50
26541;DHT22;14206;50.202;10.948;2022-09-17T18:54:23;10.40;94.80
26541;DHT22;14206;50.202;10.948;2022-09-17T18:56:50;10.40;94.70
26541;DHT22;14206;50.202;10.948;2022-09-17T18:59:16;10.40;95.20
26541;DHT22;14206;50.202;10.948;2022-09-17T19:01:43;10.40;95.20
26541;DHT22;14206;50.202;10.948;2022-09-17T19:04:10;10.50;94.80
26541;DHT22;14206;50.202;10.948;2022-09-17T19:06:37;10.40;94.60
26541;DHT22;14206;50.202;10.948;2022-09-17T19:09:04;10.40;94.70
26541;DHT22;14206;50.202;10.948;2022-09-17T19:11:33;10.30;94.90
26541;DHT22;14206;50.202;10.948;2022-09-17T19:14:01;10.20;95.70
26541;DHT22;14206;50.202;10.948;2022-09-17T19:16:27;10.10;95.90
26541;DHT22;14206;50.202;10.948;2022-09-17T19:18:54;10.10;95.90
26541;DHT22;14206;50.202;10.948;2022-09-17T19:21:21;10.10;95.80
26541;DHT22;14206;50.202;10.948;2022-09-17T19:23:50;10.00;96.30
26541;DHT22;14206;50.202;10.948;2022-09-17T19:26:19;10.00;95.90
26541;DHT22;14206;50.202;10.948;2022-09-17T19:28:47;10.00;96.10
26541;DHT22;14206;50.202;10.948;2022-09-17T19:31:16;10.00;96.10
26541;DHT22;14206;50.202;10.948;2022-09-17T19:33:43;10.00;95.70
26541;DHT22;14206;50.202;10.948;2022-09-17T19:36:12;9.90;96.40
26541;DHT22;14206;50.202;10.948;2022-09-17T19:38:40;9.80;96.60
26541;DHT22;14206;50.202;10.948;2022-09-17T19:41:12;9.80;96.60
26541;DHT22;14206;50.202;10.948;2022-09-17T19:43:39;9.80;96.60